Fuzhou Changle International Airport
ZSFZ : now visible

Airfield :











YOU CAN JOIN US ON...

 
LOGIN :

Register | Disclaimer

   EN    FR    IT 

 









Legend :    VFR   Marginal VFR   IFR   Intensive IFR   Very Intensive IFR
Visi :
Ceiling :
>= 8 km
>= 3000ft
5 to 8 km
1000 to 3000 ft
1500m to 5 km
500 to 1000 ft
800 to 1500m
200 to 500 ft
< 800m
< 200 ft
Symbols :   Thunderstorms  Fog  Heavy snow  Heavy precipitations  Wind > 20 kt






- Airport Elevation : 46 ft
- IATA code : FOC


ZSFZ - Fuzhou Changle International

CURRENT METAR :
  • 271600Z 20002MPS 170V230 9999 FEW050 25/23 Q1001 NOSIG

EXPIRED METARs :
  • 271500Z 21005MPS 9999 FEW013 BKN050 26/24 Q1001 NOSIG
  • 271400Z 20004MPS 160V220 9999 BKN015 BKN043 26/24 Q1001 BECMG TL1530 BKN011
  • 271300Z 20006MPS 9999 FEW013 BKN017 26/24 Q1000 NOSIG
  • 271200Z 21008MPS 9999 BKN015 26/24 Q1000 BECMG TL1330 BKN013

TAF TAF ZSFZ
Valid from the 27 at 12:00 until the 28 at 12:00 UTC


270907Z 2712/2812 20008G13MPS 6000 BKN015 TX26/2806Z TN21/2721Z
TEMPO 2712/2716 SHRA BKN015 FEW025CB
BECMG 2714/2715 20003G08MPS
BECMG 2718/2719 04006G12MPS
ZSHA FIR / Asia



MET'MAP, your aeronautical weather chart ! - Copyright ORBIFLY December 2007 - Disclaimer

ORBIFLY MET'MAP TEAM :

Programming & Development : Alexandra Zaïnal
Original concept : Baudouin d'Aumeries
Technical & hardware support : Manuel Goepfert
Assistance : Marc-Olivier Méhu




SOURCES & CREDITS :

   NOAA       Earth
Advisory